sensor_id;sensor_type;location;lat;lon;timestamp;temperature;humidity
16301;DHT22;8258;51.020;4.248;2023-02-11T00:00:48;5.50;99.90
16301;DHT22;8258;51.020;4.248;2023-02-11T00:03:15;5.50;99.90
16301;DHT22;8258;51.020;4.248;2023-02-11T00:05:43;5.40;99.90
16301;DHT22;8258;51.020;4.248;2023-02-11T00:08:09;5.40;99.90
16301;DHT22;8258;51.020;4.248;2023-02-11T00:10:41;5.40;99.90
16301;DHT22;8258;51.020;4.248;2023-02-11T00:13:12;5.40;99.90
16301;DHT22;8258;51.020;4.248;2023-02-11T00:15:39;5.40;99.90
16301;DHT22;8258;51.020;4.248;2023-02-11T00:18:06;5.40;99.90
16301;DHT22;8258;51.020;4.248;2023-02-11T00:20:33;5.30;99.90
16301;DHT22;8258;51.020;4.248;2023-02-11T00:23:00;5.30;99.90
16301;DHT22;8258;51.020;4.248;2023-02-11T00:25:26;5.30;99.90
16301;DHT22;8258;51.020;4.248;2023-02-11T00:27:53;5.30;99.90
16301;DHT22;8258;51.020;4.248;2023-02-11T00:30:22;5.20;99.90
16301;DHT22;8258;51.020;4.248;2023-02-11T00:32:49;5.20;99.90
16301;DHT22;8258;51.020;4.248;2023-02-11T00:35:16;5.30;99.90
16301;DHT22;8258;51.020;4.248;2023-02-11T00:37:43;5.40;99.90
16301;DHT22;8258;51.020;4.248;2023-02-11T00:40:11;5.40;99.90
16301;DHT22;8258;51.020;4.248;2023-02-11T00:42:40;5.50;99.90
16301;DHT22;8258;51.020;4.248;2023-02-11T00:45:08;5.40;99.90
16301;DHT22;8258;51.020;4.248;2023-02-11T00:47:36;5.40;99.90
16301;DHT22;8258;51.020;4.248;2023-02-11T00:50:04;5.30;99.90
16301;DHT22;8258;51.020;4.248;2023-02-11T00:52:32;5.30;99.90
16301;DHT22;8258;51.020;4.248;2023-02-11T00:54:59;5.20;99.90
16301;DHT22;8258;51.020;4.248;2023-02-11T00:57:26;5.20;99.90
16301;DHT22;8258;51.020;4.248;2023-02-11T00:59:53;5.20;99.90
16301;DHT22;8258;51.020;4.248;2023-02-11T01:02:20;5.20;99.90
16301;DHT22;8258;51.020;4.248;2023-02-11T01:04:48;5.10;99.90
16301;DHT22;8258;51.020;4.248;2023-02-11T01:07:15;5.20;99.90
16301;DHT22;8258;51.020;4.248;2023-02-11T01:09:42;5.20;99.90
16301;DHT22;8258;51.020;4.248;2023-02-11T01:12:09;5.20;99.90
16301;DHT22;8258;51.020;4.248;2023-02-11T01:14:36;5.20;99.90
16301;DHT22;8258;51.020;4.248;2023-02-11T01:17:04;5.20;99.90
16301;DHT22;8258;51.020;4.248;2023-02-11T01:19:31;5.30;99.90
16301;DHT22;8258;51.020;4.248;2023-02-11T01:21:59;5.20;99.90
16301;DHT22;8258;51.020;4.248;2023-02-11T01:24:26;5.30;99.90
16301;DHT22;8258;51.020;4.248;2023-02-11T01:26:53;5.30;99.90
16301;DHT22;8258;51.020;4.248;2023-02-11T01:29:20;5.30;99.90
16301;DHT22;8258;51.020;4.248;2023-02-11T01:31:47;5.40;99.90
16301;DHT22;8258;51.020;4.248;2023-02-11T01:34:14;5.40;99.90
16301;DHT22;8258;51.020;4.248;2023-02-11T01:36:41;5.40;99.90
16301;DHT22;8258;51.020;4.248;2023-02-11T01:39:10;5.40;99.90
16301;DHT22;8258;51.020;4.248;2023-02-11T01:41:37;5.50;99.90
16301;DHT22;8258;51.020;4.248;2023-02-11T01:44:24;5.50;99.90
16301;DHT22;8258;51.020;4.248;2023-02-11T01:46:52;5.50;99.90
16301;DHT22;8258;51.020;4.248;2023-02-11T01:49:21;5.60;99.90
16301;DHT22;8258;51.020;4.248;2023-02-11T01:51:52;5.60;99.90
16301;DHT22;8258;51.020;4.248;2023-02-11T01:54:25;5.60;99.90
16301;DHT22;8258;51.020;4.248;2023-02-11T01:57:14;5.70;99.90
16301;DHT22;8258;51.020;4.248;2023-02-11T02:00:06;5.70;99.90
16301;DHT22;8258;51.020;4.248;2023-02-11T02:02:38;5.70;99.90
16301;DHT22;8258;51.020;4.248;2023-02-11T02:05:13;5.70;99.90
16301;DHT22;8258;51.020;4.248;2023-02-11T02:07:45;5.70;99.90
16301;DHT22;8258;51.020;4.248;2023-02-11T02:10:19;5.70;99.90
16301;DHT22;8258;51.020;4.248;2023-02-11T02:12:47;5.80;99.90
16301;DHT22;8258;51.020;4.248;2023-02-11T02:15:22;5.80;99.90
16301;DHT22;8258;51.020;4.248;2023-02-11T02:17:59;5.80;99.90
16301;DHT22;8258;51.020;4.248;2023-02-11T02:23:37;5.80;99.90
16301;DHT22;8258;51.020;4.248;2023-02-11T02:26:35;5.80;99.90
16301;DHT22;8258;51.020;4.248;2023-02-11T02:29:41;5.80;99.90
16301;DHT22;8258;51.020;4.248;2023-02-11T02:32:25;5.80;99.90
16301;DHT22;8258;51.020;4.248;2023-02-11T02:35:01;5.90;99.90
16301;DHT22;8258;51.020;4.248;2023-02-11T02:37:35;5.90;99.90
16301;DHT22;8258;51.020;4.248;2023-02-11T02:40:08;5.90;99.90
16301;DHT22;8258;51.020;4.248;2023-02-11T02:42:36;5.90;99.90
16301;DHT22;8258;51.020;4.248;2023-02-11T02:45:06;5.90;99.90
16301;DHT22;8258;51.020;4.248;2023-02-11T02:47:35;6.00;99.90
16301;DHT22;8258;51.020;4.248;2023-02-11T02:50:03;6.00;99.90
16301;DHT22;8258;51.020;4.248;2023-02-11T02:52:34;6.00;99.90
16301;DHT22;8258;51.020;4.248;2023-02-11T02:58:04;6.00;99.90
16301;DHT22;8258;51.020;4.248;2023-02-11T03:00:38;6.00;99.90
16301;DHT22;8258;51.020;4.248;2023-02-11T03:03:19;6.00;99.90
16301;DHT22;8258;51.020;4.248;2023-02-11T03:05:53;6.00;99.90
16301;DHT22;8258;51.020;4.248;2023-02-11T03:08:26;6.00;99.90
16301;DHT22;8258;51.020;4.248;2023-02-11T03:10:55;6.10;99.90
16301;DHT22;8258;51.020;4.248;2023-02-11T03:13:28;6.10;99.90
16301;DHT22;8258;51.020;4.248;2023-02-11T03:16:02;6.10;99.90
16301;DHT22;8258;51.020;4.248;2023-02-11T03:18:41;6.10;99.90
16301;DHT22;8258;51.020;4.248;2023-02-11T03:21:09;6.10;99.90
16301;DHT22;8258;51.020;4.248;2023-02-11T03:23:40;6.10;99.90
16301;DHT22;8258;51.020;4.248;2023-02-11T03:26:11;6.10;99.90
16301;DHT22;8258;51.020;4.248;2023-02-11T03:28:44;6.10;99.90
16301;DHT22;8258;51.020;4.248;2023-02-11T03:31:19;6.10;99.90
16301;DHT22;8258;51.020;4.248;2023-02-11T03:33:54;6.10;99.90
16301;DHT22;8258;51.020;4.248;2023-02-11T03:36:27;6.00;99.90
16301;DHT22;8258;51.020;4.248;2023-02-11T03:38:58;6.00;99.90
16301;DHT22;8258;51.020;4.248;2023-02-11T03:41:26;6.00;99.90
16301;DHT22;8258;51.020;4.248;2023-02-11T03:44:00;6.00;99.90
16301;DHT22;8258;51.020;4.248;2023-02-11T03:46:31;6.10;99.90
16301;DHT22;8258;51.020;4.248;2023-02-11T03:49:03;6.10;99.90
16301;DHT22;8258;51.020;4.248;2023-02-11T03:51:32;6.00;99.90
16301;DHT22;8258;51.020;4.248;2023-02-11T03:54:02;6.00;99.90
16301;DHT22;8258;51.020;4.248;2023-02-11T03:56:35;6.00;99.90
16301;DHT22;8258;51.020;4.248;2023-02-11T03:59:03;6.00;99.90
16301;DHT22;8258;51.020;4.248;2023-02-11T04:01:30;6.00;99.90
16301;DHT22;8258;51.020;4.248;2023-02-11T04:03:57;6.00;99.90
16301;DHT22;8258;51.020;4.248;2023-02-11T04:06:25;6.00;99.90
16301;DHT22;8258;51.020;4.248;2023-02-11T04:08:52;6.00;99.90
16301;DHT22;8258;51.020;4.248;2023-02-11T04:11:19;6.00;99.90
16301;DHT22;8258;51.020;4.248;2023-02-11T04:13:46;6.00;99.90
16301;DHT22;8258;51.020;4.248;2023-02-11T04:16:13;6.00;99.90
16301;DHT22;8258;51.020;4.248;2023-02-11T04:18:40;6.00;99.90
16301;DHT22;8258;51.020;4.248;2023-02-11T04:21:08;6.10;99.90
16301;DHT22;8258;51.020;4.248;2023-02-11T04:23:36;6.10;99.90
16301;DHT22;8258;51.020;4.248;2023-02-11T04:26:04;6.20;99.90
16301;DHT22;8258;51.020;4.248;2023-02-11T04:28:31;6.20;99.90
16301;DHT22;8258;51.020;4.248;2023-02-11T04:30:59;6.20;99.90
16301;DHT22;8258;51.020;4.248;2023-02-11T04:33:26;6.20;99.90
16301;DHT22;8258;51.020;4.248;2023-02-11T04:35:53;6.20;99.90
16301;DHT22;8258;51.020;4.248;2023-02-11T04:38:20;6.20;99.90
16301;DHT22;8258;51.020;4.248;2023-02-11T04:40:50;6.10;99.90
16301;DHT22;8258;51.020;4.248;2023-02-11T04:43:17;6.20;99.90
16301;DHT22;8258;51.020;4.248;2023-02-11T04:45:44;6.20;99.90
16301;DHT22;8258;51.020;4.248;2023-02-11T04:48:11;6.10;99.90
16301;DHT22;8258;51.020;4.248;2023-02-11T04:50:37;6.10;99.90
16301;DHT22;8258;51.020;4.248;2023-02-11T04:53:04;6.20;99.90
16301;DHT22;8258;51.020;4.248;2023-02-11T04:55:31;6.20;99.90
16301;DHT22;8258;51.020;4.248;2023-02-11T04:58:00;6.20;99.90
16301;DHT22;8258;51.020;4.248;2023-02-11T05:00:26;6.20;99.90
16301;DHT22;8258;51.020;4.248;2023-02-11T05:02:53;6.20;99.90
16301;DHT22;8258;51.020;4.248;2023-02-11T05:05:20;6.10;99.90
16301;DHT22;8258;51.020;4.248;2023-02-11T05:07:47;6.20;99.90
16301;DHT22;8258;51.020;4.248;2023-02-11T05:10:14;6.10;99.90
16301;DHT22;8258;51.020;4.248;2023-02-11T05:12:42;6.10;99.90
16301;DHT22;8258;51.020;4.248;2023-02-11T05:15:10;6.10;99.90
16301;DHT22;8258;51.020;4.248;2023-02-11T05:17:37;6.10;99.90
16301;DHT22;8258;51.020;4.248;2023-02-11T05:20:05;6.10;99.90
16301;DHT22;8258;51.020;4.248;2023-02-11T05:22:32;6.10;99.90
16301;DHT22;8258;51.020;4.248;2023-02-11T05:24:59;6.10;99.90
16301;DHT22;8258;51.020;4.248;2023-02-11T05:27:26;6.20;99.90
16301;DHT22;8258;51.020;4.248;2023-02-11T05:29:53;6.20;99.90
16301;DHT22;8258;51.020;4.248;2023-02-11T05:32:22;6.20;99.90
16301;DHT22;8258;51.020;4.248;2023-02-11T05:34:49;6.20;99.90
16301;DHT22;8258;51.020;4.248;2023-02-11T05:37:16;6.20;99.90
16301;DHT22;8258;51.020;4.248;2023-02-11T05:39:43;6.20;99.90
16301;DHT22;8258;51.020;4.248;2023-02-11T05:42:10;6.20;99.90
16301;DHT22;8258;51.020;4.248;2023-02-11T05:44:37;6.20;99.90
16301;DHT22;8258;51.020;4.248;2023-02-11T05:47:04;6.20;99.90
16301;DHT22;8258;51.020;4.248;2023-02-11T05:49:34;6.20;99.90
16301;DHT22;8258;51.020;4.248;2023-02-11T05:52:01;6.20;99.90
16301;DHT22;8258;51.020;4.248;2023-02-11T05:54:28;6.20;99.90
16301;DHT22;8258;51.020;4.248;2023-02-11T05:56:55;6.20;99.90
16301;DHT22;8258;51.020;4.248;2023-02-11T05:59:22;6.20;99.90
16301;DHT22;8258;51.020;4.248;2023-02-11T06:01:49;6.20;99.90
16301;DHT22;8258;51.020;4.248;2023-02-11T06:04:16;6.20;99.90
16301;DHT22;8258;51.020;4.248;2023-02-11T06:06:44;6.20;99.90
16301;DHT22;8258;51.020;4.248;2023-02-11T06:09:11;6.10;99.90
16301;DHT22;8258;51.020;4.248;2023-02-11T06:11:38;6.20;99.90
16301;DHT22;8258;51.020;4.248;2023-02-11T06:14:05;6.10;99.90
16301;DHT22;8258;51.020;4.248;2023-02-11T06:16:32;6.10;99.90
16301;DHT22;8258;51.020;4.248;2023-02-11T06:18:59;6.10;99.90
16301;DHT22;8258;51.020;4.248;2023-02-11T06:21:26;6.10;99.90
16301;DHT22;8258;51.020;4.248;2023-02-11T06:23:54;6.00;99.90
16301;DHT22;8258;51.020;4.248;2023-02-11T06:26:22;6.00;99.90
16301;DHT22;8258;51.020;4.248;2023-02-11T06:28:49;5.90;99.90
16301;DHT22;8258;51.020;4.248;2023-02-11T06:31:16;5.90;99.90
16301;DHT22;8258;51.020;4.248;2023-02-11T06:33:43;5.90;99.90
16301;DHT22;8258;51.020;4.248;2023-02-11T06:36:12;5.90;99.90
16301;DHT22;8258;51.020;4.248;2023-02-11T06:38:40;5.90;99.90
16301;DHT22;8258;51.020;4.248;2023-02-11T06:41:10;5.90;99.90
16301;DHT22;8258;51.020;4.248;2023-02-11T06:43:38;5.90;99.90
16301;DHT22;8258;51.020;4.248;2023-02-11T06:46:06;5.90;99.90
16301;DHT22;8258;51.020;4.248;2023-02-11T06:48:34;6.00;99.90
16301;DHT22;8258;51.020;4.248;2023-02-11T06:51:02;6.10;99.90
16301;DHT22;8258;51.020;4.248;2023-02-11T06:53:30;6.10;99.90
16301;DHT22;8258;51.020;4.248;2023-02-11T06:56:01;6.10;99.90
16301;DHT22;8258;51.020;4.248;2023-02-11T06:58:30;6.20;99.90
16301;DHT22;8258;51.020;4.248;2023-02-11T07:00:57;6.20;99.90
16301;DHT22;8258;51.020;4.248;2023-02-11T07:03:25;6.20;99.90
16301;DHT22;8258;51.020;4.248;2023-02-11T07:05:52;6.20;99.90
16301;DHT22;8258;51.020;4.248;2023-02-11T07:08:19;6.20;99.90
16301;DHT22;8258;51.020;4.248;2023-02-11T07:10:46;6.20;99.90
16301;DHT22;8258;51.020;4.248;2023-02-11T07:13:13;6.30;99.90
16301;DHT22;8258;51.020;4.248;2023-02-11T07:15:42;6.30;99.90
16301;DHT22;8258;51.020;4.248;2023-02-11T07:18:09;6.30;99.90
16301;DHT22;8258;51.020;4.248;2023-02-11T07:20:36;6.30;99.90
16301;DHT22;8258;51.020;4.248;2023-02-11T07:23:03;6.30;99.90
16301;DHT22;8258;51.020;4.248;2023-02-11T07:25:30;6.40;99.90
16301;DHT22;8258;51.020;4.248;2023-02-11T07:27:57;6.40;99.90
16301;DHT22;8258;51.020;4.248;2023-02-11T07:30:24;6.50;99.90
16301;DHT22;8258;51.020;4.248;2023-02-11T07:32:52;6.50;99.90
16301;DHT22;8258;51.020;4.248;2023-02-11T07:35:19;6.60;99.90
16301;DHT22;8258;51.020;4.248;2023-02-11T07:37:46;6.60;99.90
16301;DHT22;8258;51.020;4.248;2023-02-11T07:40:13;6.60;99.90
16301;DHT22;8258;51.020;4.248;2023-02-11T07:42:40;6.60;99.90
16301;DHT22;8258;51.020;4.248;2023-02-11T07:45:07;6.60;99.90
16301;DHT22;8258;51.020;4.248;2023-02-11T07:47:35;6.70;99.90
16301;DHT22;8258;51.020;4.248;2023-02-11T07:50:04;6.70;99.90
16301;DHT22;8258;51.020;4.248;2023-02-11T07:52:31;6.80;99.90
16301;DHT22;8258;51.020;4.248;2023-02-11T07:54:58;6.80;99.90
16301;DHT22;8258;51.020;4.248;2023-02-11T07:57:25;6.80;99.90
16301;DHT22;8258;51.020;4.248;2023-02-11T07:59:52;6.70;99.90
16301;DHT22;8258;51.020;4.248;2023-02-11T08:02:19;6.80;99.90
16301;DHT22;8258;51.020;4.248;2023-02-11T08:04:46;6.90;99.90
16301;DHT22;8258;51.020;4.248;2023-02-11T08:07:15;6.90;99.90
16301;DHT22;8258;51.020;4.248;2023-02-11T08:09:43;7.00;99.90
16301;DHT22;8258;51.020;4.248;2023-02-11T08:12:10;7.00;99.90
16301;DHT22;8258;51.020;4.248;2023-02-11T08:14:49;7.10;99.90
16301;DHT22;8258;51.020;4.248;2023-02-11T08:17:18;7.00;99.90
16301;DHT22;8258;51.020;4.248;2023-02-11T08:19:45;7.00;99.90
16301;DHT22;8258;51.020;4.248;2023-02-11T08:22:12;7.00;99.90
16301;DHT22;8258;51.020;4.248;2023-02-11T08:24:47;7.00;99.90
16301;DHT22;8258;51.020;4.248;2023-02-11T08:27:14;7.00;99.90
16301;DHT22;8258;51.020;4.248;2023-02-11T08:29:41;7.10;99.90
16301;DHT22;8258;51.020;4.248;2023-02-11T08:32:08;7.10;99.90
16301;DHT22;8258;51.020;4.248;2023-02-11T08:34:35;7.10;99.90
16301;DHT22;8258;51.020;4.248;2023-02-11T08:37:02;7.20;99.90
16301;DHT22;8258;51.020;4.248;2023-02-11T08:39:29;7.20;99.90
16301;DHT22;8258;51.020;4.248;2023-02-11T08:41:57;7.20;99.90
16301;DHT22;8258;51.020;4.248;2023-02-11T08:44:24;7.20;99.90
16301;DHT22;8258;51.020;4.248;2023-02-11T08:46:52;7.30;99.90
16301;DHT22;8258;51.020;4.248;2023-02-11T08:49:19;7.40;99.90
16301;DHT22;8258;51.020;4.248;2023-02-11T08:51:47;7.40;99.90
16301;DHT22;8258;51.020;4.248;2023-02-11T08:54:14;7.40;99.90
16301;DHT22;8258;51.020;4.248;2023-02-11T08:56:42;7.40;99.90
16301;DHT22;8258;51.020;4.248;2023-02-11T08:59:17;7.40;99.90
16301;DHT22;8258;51.020;4.248;2023-02-11T09:01:44;7.40;99.90
16301;DHT22;8258;51.020;4.248;2023-02-11T09:04:12;7.40;99.90
16301;DHT22;8258;51.020;4.248;2023-02-11T09:06:39;7.40;99.90
16301;DHT22;8258;51.020;4.248;2023-02-11T09:09:09;7.40;99.90
16301;DHT22;8258;51.020;4.248;2023-02-11T09:11:36;7.50;99.90
16301;DHT22;8258;51.020;4.248;2023-02-11T09:14:03;7.50;99.90
16301;DHT22;8258;51.020;4.248;2023-02-11T09:16:34;7.50;99.90
16301;DHT22;8258;51.020;4.248;2023-02-11T09:19:04;7.60;99.90
16301;DHT22;8258;51.020;4.248;2023-02-11T09:21:31;7.60;99.90
16301;DHT22;8258;51.020;4.248;2023-02-11T09:23:58;7.60;99.90
16301;DHT22;8258;51.020;4.248;2023-02-11T09:26:27;7.70;99.90
16301;DHT22;8258;51.020;4.248;2023-02-11T09:28:54;7.80;99.90
16301;DHT22;8258;51.020;4.248;2023-02-11T09:31:23;7.80;99.90
16301;DHT22;8258;51.020;4.248;2023-02-11T09:33:54;7.80;99.90
16301;DHT22;8258;51.020;4.248;2023-02-11T09:36:23;7.90;99.90
16301;DHT22;8258;51.020;4.248;2023-02-11T09:38:50;7.90;99.90
16301;DHT22;8258;51.020;4.248;2023-02-11T09:41:32;8.00;99.90
16301;DHT22;8258;51.020;4.248;2023-02-11T09:44:02;8.00;99.90
16301;DHT22;8258;51.020;4.248;2023-02-11T09:46:32;8.20;99.90
16301;DHT22;8258;51.020;4.248;2023-02-11T09:49:03;8.20;99.90
16301;DHT22;8258;51.020;4.248;2023-02-11T09:51:37;8.20;99.90
16301;DHT22;8258;51.020;4.248;2023-02-11T09:54:12;8.20;99.90
16301;DHT22;8258;51.020;4.248;2023-02-11T09:56:39;8.20;99.90
16301;DHT22;8258;51.020;4.248;2023-02-11T09:59:09;8.20;99.90
16301;DHT22;8258;51.020;4.248;2023-02-11T10:01:40;8.20;99.90
16301;DHT22;8258;51.020;4.248;2023-02-11T10:04:14;8.20;99.90
16301;DHT22;8258;51.020;4.248;2023-02-11T10:06:45;8.20;99.90
16301;DHT22;8258;51.020;4.248;2023-02-11T10:09:35;8.20;99.90
16301;DHT22;8258;51.020;4.248;2023-02-11T10:12:21;8.20;99.90
16301;DHT22;8258;51.020;4.248;2023-02-11T10:15:10;8.30;99.90
16301;DHT22;8258;51.020;4.248;2023-02-11T10:17:46;8.30;99.90
16301;DHT22;8258;51.020;4.248;2023-02-11T10:20:27;8.40;99.90
16301;DHT22;8258;51.020;4.248;2023-02-11T10:22:58;8.40;99.90
16301;DHT22;8258;51.020;4.248;2023-02-11T10:25:36;8.30;99.90
16301;DHT22;8258;51.020;4.248;2023-02-11T10:28:12;8.30;99.90
16301;DHT22;8258;51.020;4.248;2023-02-11T10:30:42;8.30;99.90
16301;DHT22;8258;51.020;4.248;2023-02-11T10:33:17;8.40;99.90
16301;DHT22;8258;51.020;4.248;2023-02-11T10:35:48;8.30;99.90
16301;DHT22;8258;51.020;4.248;2023-02-11T10:38:15;8.40;99.90
16301;DHT22;8258;51.020;4.248;2023-02-11T10:40:42;8.40;99.90
16301;DHT22;8258;51.020;4.248;2023-02-11T10:43:11;8.40;99.90
16301;DHT22;8258;51.020;4.248;2023-02-11T10:45:42;8.40;99.90
16301;DHT22;8258;51.020;4.248;2023-02-11T10:48:36;8.40;99.90
16301;DHT22;8258;51.020;4.248;2023-02-11T10:51:15;8.50;99.90
16301;DHT22;8258;51.020;4.248;2023-02-11T10:53:42;8.50;99.90
16301;DHT22;8258;51.020;4.248;2023-02-11T10:56:11;8.50;99.90
16301;DHT22;8258;51.020;4.248;2023-02-11T10:58:43;8.50;99.90
16301;DHT22;8258;51.020;4.248;2023-02-11T11:01:10;8.60;99.90
16301;DHT22;8258;51.020;4.248;2023-02-11T11:03:44;8.60;99.90
16301;DHT22;8258;51.020;4.248;2023-02-11T11:06:13;8.60;99.90
16301;DHT22;8258;51.020;4.248;2023-02-11T11:08:42;8.60;99.90
16301;DHT22;8258;51.020;4.248;2023-02-11T11:11:11;8.70;99.90
16301;DHT22;8258;51.020;4.248;2023-02-11T11:13:40;8.70;99.90
16301;DHT22;8258;51.020;4.248;2023-02-11T11:16:23;8.70;99.90
16301;DHT22;8258;51.020;4.248;2023-02-11T11:18:51;8.80;99.90
16301;DHT22;8258;51.020;4.248;2023-02-11T11:21:22;8.80;99.90
16301;DHT22;8258;51.020;4.248;2023-02-11T11:23:54;8.80;99.90
16301;DHT22;8258;51.020;4.248;2023-02-11T11:26:23;8.80;99.90
16301;DHT22;8258;51.020;4.248;2023-02-11T11:28:57;8.80;99.90
16301;DHT22;8258;51.020;4.248;2023-02-11T11:31:28;8.70;99.90
16301;DHT22;8258;51.020;4.248;2023-02-11T11:33:58;8.70;99.90
16301;DHT22;8258;51.020;4.248;2023-02-11T11:36:33;8.80;99.90
16301;DHT22;8258;51.020;4.248;2023-02-11T11:39:09;8.70;99.90
16301;DHT22;8258;51.020;4.248;2023-02-11T11:41:49;8.70;99.90
16301;DHT22;8258;51.020;4.248;2023-02-11T11:44:23;8.70;99.90
16301;DHT22;8258;51.020;4.248;2023-02-11T11:47:17;8.60;99.90
16301;DHT22;8258;51.020;4.248;2023-02-11T11:49:50;8.60;99.90
16301;DHT22;8258;51.020;4.248;2023-02-11T11:52:31;8.60;99.90
16301;DHT22;8258;51.020;4.248;2023-02-11T11:55:04;8.80;99.90
16301;DHT22;8258;51.020;4.248;2023-02-11T11:57:36;8.90;99.90
16301;DHT22;8258;51.020;4.248;2023-02-11T12:00:05;9.00;99.90
16301;DHT22;8258;51.020;4.248;2023-02-11T12:03:22;8.90;99.90
16301;DHT22;8258;51.020;4.248;2023-02-11T12:06:10;8.90;99.90
16301;DHT22;8258;51.020;4.248;2023-02-11T12:08:47;8.90;99.90
16301;DHT22;8258;51.020;4.248;2023-02-11T12:11:24;8.90;99.90
16301;DHT22;8258;51.020;4.248;2023-02-11T12:14:02;9.00;99.90
16301;DHT22;8258;51.020;4.248;2023-02-11T12:16:42;8.90;99.90
16301;DHT22;8258;51.020;4.248;2023-02-11T12:19:33;9.00;99.90
16301;DHT22;8258;51.020;4.248;2023-02-11T12:22:25;9.10;99.90
16301;DHT22;8258;51.020;4.248;2023-02-11T12:25:08;9.10;99.90
16301;DHT22;8258;51.020;4.248;2023-02-11T12:27:49;9.10;99.90
16301;DHT22;8258;51.020;4.248;2023-02-11T12:30:31;9.10;99.90
16301;DHT22;8258;51.020;4.248;2023-02-11T12:33:04;9.10;99.90
16301;DHT22;8258;51.020;4.248;2023-02-11T12:35:45;9.20;99.90
16301;DHT22;8258;51.020;4.248;2023-02-11T12:38:40;9.20;99.90
16301;DHT22;8258;51.020;4.248;2023-02-11T12:41:30;9.20;99.90
16301;DHT22;8258;51.020;4.248;2023-02-11T12:44:22;9.30;99.90
16301;DHT22;8258;51.020;4.248;2023-02-11T12:46:58;9.30;99.90
16301;DHT22;8258;51.020;4.248;2023-02-11T12:49:41;9.40;99.90
16301;DHT22;8258;51.020;4.248;2023-02-11T12:52:22;9.40;99.90
16301;DHT22;8258;51.020;4.248;2023-02-11T12:54:54;9.30;99.90
16301;DHT22;8258;51.020;4.248;2023-02-11T12:57:26;9.30;99.90
16301;DHT22;8258;51.020;4.248;2023-02-11T12:59:57;9.30;99.90
16301;DHT22;8258;51.020;4.248;2023-02-11T13:02:35;9.30;99.90
16301;DHT22;8258;51.020;4.248;2023-02-11T13:05:13;9.30;99.90
16301;DHT22;8258;51.020;4.248;2023-02-11T13:07:45;9.30;99.90
16301;DHT22;8258;51.020;4.248;2023-02-11T13:10:23;9.30;99.90
16301;DHT22;8258;51.020;4.248;2023-02-11T13:12:54;9.30;99.90
16301;DHT22;8258;51.020;4.248;2023-02-11T13:15:41;9.40;99.90
16301;DHT22;8258;51.020;4.248;2023-02-11T13:18:16;9.40;99.90
16301;DHT22;8258;51.020;4.248;2023-02-11T13:20:48;9.40;99.90
16301;DHT22;8258;51.020;4.248;2023-02-11T13:23:22;9.40;99.90
16301;DHT22;8258;51.020;4.248;2023-02-11T13:25:56;9.50;99.90
16301;DHT22;8258;51.020;4.248;2023-02-11T13:28:35;9.40;99.90
16301;DHT22;8258;51.020;4.248;2023-02-11T13:31:06;9.40;99.90
16301;DHT22;8258;51.020;4.248;2023-02-11T13:33:35;9.40;99.90
16301;DHT22;8258;51.020;4.248;2023-02-11T13:36:24;9.50;99.90
16301;DHT22;8258;51.020;4.248;2023-02-11T13:38:55;9.50;99.90
16301;DHT22;8258;51.020;4.248;2023-02-11T13:41:27;9.50;99.90
16301;DHT22;8258;51.020;4.248;2023-02-11T13:44:21;9.40;99.90
16301;DHT22;8258;51.020;4.248;2023-02-11T13:46:52;9.40;99.90
16301;DHT22;8258;51.020;4.248;2023-02-11T13:49:23;9.40;99.90
16301;DHT22;8258;51.020;4.248;2023-02-11T13:51:51;9.40;99.90
16301;DHT22;8258;51.020;4.248;2023-02-11T13:54:23;9.30;99.90
16301;DHT22;8258;51.020;4.248;2023-02-11T13:59:58;9.40;99.90
16301;DHT22;8258;51.020;4.248;2023-02-11T14:02:32;9.40;99.90
16301;DHT22;8258;51.020;4.248;2023-02-11T14:05:29;9.40;99.90
16301;DHT22;8258;51.020;4.248;2023-02-11T14:08:23;9.40;99.90
16301;DHT22;8258;51.020;4.248;2023-02-11T14:11:45;9.30;99.90
16301;DHT22;8258;51.020;4.248;2023-02-11T14:14:18;9.30;99.90
16301;DHT22;8258;51.020;4.248;2023-02-11T14:17:31;9.30;99.90
16301;DHT22;8258;51.020;4.248;2023-02-11T14:19:58;9.30;99.90
16301;DHT22;8258;51.020;4.248;2023-02-11T14:22:28;9.20;99.90
16301;DHT22;8258;51.020;4.248;2023-02-11T14:24:58;9.20;99.90
16301;DHT22;8258;51.020;4.248;2023-02-11T14:27:28;9.40;99.90
16301;DHT22;8258;51.020;4.248;2023-02-11T14:30:12;9.30;99.90
16301;DHT22;8258;51.020;4.248;2023-02-11T14:33:02;9.30;99.90
16301;DHT22;8258;51.020;4.248;2023-02-11T14:35:37;9.30;99.90
16301;DHT22;8258;51.020;4.248;2023-02-11T14:38:20;9.30;99.90
16301;DHT22;8258;51.020;4.248;2023-02-11T14:40:53;9.30;99.90
16301;DHT22;8258;51.020;4.248;2023-02-11T14:43:24;9.30;99.90
16301;DHT22;8258;51.020;4.248;2023-02-11T14:45:54;9.30;99.90
16301;DHT22;8258;51.020;4.248;2023-02-11T14:48:27;9.30;99.90
16301;DHT22;8258;51.020;4.248;2023-02-11T14:50:59;9.20;99.90
16301;DHT22;8258;51.020;4.248;2023-02-11T14:53:27;9.20;99.90
16301;DHT22;8258;51.020;4.248;2023-02-11T14:55:55;9.30;99.90
16301;DHT22;8258;51.020;4.248;2023-02-11T14:58:24;9.30;99.90
16301;DHT22;8258;51.020;4.248;2023-02-11T15:00:57;9.40;99.90
16301;DHT22;8258;51.020;4.248;2023-02-11T15:03:29;9.40;99.90
16301;DHT22;8258;51.020;4.248;2023-02-11T15:05:59;9.30;99.90
16301;DHT22;8258;51.020;4.248;2023-02-11T15:08:26;9.30;99.90
16301;DHT22;8258;51.020;4.248;2023-02-11T15:10:54;9.30;99.90
16301;DHT22;8258;51.020;4.248;2023-02-11T15:13:23;9.30;99.90
16301;DHT22;8258;51.020;4.248;2023-02-11T15:15:58;9.30;99.90
16301;DHT22;8258;51.020;4.248;2023-02-11T15:18:32;9.20;99.90
16301;DHT22;8258;51.020;4.248;2023-02-11T15:21:00;9.30;99.90
16301;DHT22;8258;51.020;4.248;2023-02-11T15:23:28;9.30;99.90
16301;DHT22;8258;51.020;4.248;2023-02-11T15:25:55;9.30;99.90
16301;DHT22;8258;51.020;4.248;2023-02-11T15:28:24;9.30;99.90
16301;DHT22;8258;51.020;4.248;2023-02-11T15:30:58;9.30;99.90
16301;DHT22;8258;51.020;4.248;2023-02-11T15:33:34;9.30;99.90
16301;DHT22;8258;51.020;4.248;2023-02-11T15:36:10;9.40;99.90
16301;DHT22;8258;51.020;4.248;2023-02-11T15:38:43;9.30;99.90
16301;DHT22;8258;51.020;4.248;2023-02-11T15:41:33;9.30;99.90
16301;DHT22;8258;51.020;4.248;2023-02-11T15:44:00;9.30;99.90
16301;DHT22;8258;51.020;4.248;2023-02-11T15:46:37;9.30;99.90
16301;DHT22;8258;51.020;4.248;2023-02-11T15:49:12;9.30;99.90
16301;DHT22;8258;51.020;4.248;2023-02-11T15:51:44;9.30;99.90
16301;DHT22;8258;51.020;4.248;2023-02-11T15:54:16;9.30;99.90
16301;DHT22;8258;51.020;4.248;2023-02-11T15:56:45;9.40;99.90
16301;DHT22;8258;51.020;4.248;2023-02-11T15:59:17;9.40;99.90
16301;DHT22;8258;51.020;4.248;2023-02-11T16:01:46;9.50;99.90
16301;DHT22;8258;51.020;4.248;2023-02-11T16:04:18;9.30;99.90
16301;DHT22;8258;51.020;4.248;2023-02-11T16:06:46;9.40;99.90
16301;DHT22;8258;51.020;4.248;2023-02-11T16:09:29;9.40;99.90
16301;DHT22;8258;51.020;4.248;2023-02-11T16:11:58;9.40;99.90
16301;DHT22;8258;51.020;4.248;2023-02-11T16:14:31;9.40;99.90
16301;DHT22;8258;51.020;4.248;2023-02-11T16:17:00;9.50;99.90
16301;DHT22;8258;51.020;4.248;2023-02-11T16:19:31;9.40;99.90
16301;DHT22;8258;51.020;4.248;2023-02-11T16:22:00;9.50;99.90
16301;DHT22;8258;51.020;4.248;2023-02-11T16:24:31;9.40;99.90
16301;DHT22;8258;51.020;4.248;2023-02-11T16:26:59;9.30;99.90
16301;DHT22;8258;51.020;4.248;2023-02-11T16:29:28;9.20;99.90
16301;DHT22;8258;51.020;4.248;2023-02-11T16:32:05;9.20;99.90
16301;DHT22;8258;51.020;4.248;2023-02-11T16:34:34;9.10;99.90
16301;DHT22;8258;51.020;4.248;2023-02-11T16:37:03;9.20;99.90
16301;DHT22;8258;51.020;4.248;2023-02-11T16:39:30;9.10;99.90